Time;durP1;ratioP1;P1;durP2;ratioP2;P2;SDS_P1;SDS_P2;PMS_P1;PMS_P2;Temp;Humidity;BMP_temperature;BMP_pressure;BME280_temperature;BME280_humidity;BME280_pressure;Samples;Min_cycle;Max_cycle;Signal;HPM_P1;HPM_P2
2023/08/12 00:02:47;;;;;;;5.53;3.00;;;23.70;85.70;;;;;;4861031;29;20069;-71
2023/08/12 00:05:13;;;;;;;8.27;3.30;;;23.70;85.90;;;;;;4876546;29;20448;-70
2023/08/12 00:07:43;;;;;;;6.13;3.10;;;23.70;86.10;;;;;;4973429;28;20393;-71
2023/08/12 00:10:11;;;;;;;4.53;3.08;;;23.60;86.20;;;;;;5096408;28;20081;-70
2023/08/12 00:12:38;;;;;;;4.45;2.97;;;23.60;86.20;;;;;;5096178;28;20020;-71
2023/08/12 00:15:06;;;;;;;8.13;3.47;;;23.60;86.30;;;;;;5095748;28;20032;-71
2023/08/12 00:17:33;;;;;;;6.07;3.35;;;23.60;86.40;;;;;;5096105;28;20024;-72
2023/08/12 00:19:59;;;;;;;3.92;3.55;;;23.60;86.70;;;;;;5096268;28;20427;-71
2023/08/12 00:22:25;;;;;;;5.60;3.05;;;23.50;86.70;;;;;;5095766;28;20020;-71
2023/08/12 00:24:51;;;;;;;7.80;3.08;;;23.50;86.60;;;;;;5095888;28;20028;-71
2023/08/12 00:27:18;;;;;;;15.85;4.15;;;23.50;86.50;;;;;;5095817;28;20056;-71
2023/08/12 00:29:44;;;;;;;6.72;3.30;;;23.40;86.70;;;;;;5095676;28;20020;-71
2023/08/12 00:32:10;;;;;;;8.77;3.85;;;23.40;86.70;;;;;;5095672;28;20024;-71
2023/08/12 00:34:36;;;;;;;5.13;2.90;;;23.40;86.70;;;;;;5095925;28;20028;-70
2023/08/12 00:37:02;;;;;;;5.05;3.05;;;23.40;86.80;;;;;;5094063;28;20127;-71
2023/08/12 00:39:27;;;;;;;5.72;3.20;;;23.40;86.60;;;;;;5095875;28;20543;-71
2023/08/12 00:41:53;;;;;;;6.72;3.00;;;23.40;86.80;;;;;;5095758;28;20024;-71
2023/08/12 00:44:19;;;;;;;3.85;2.90;;;23.30;87.00;;;;;;5095319;28;20016;-71
2023/08/12 00:46:45;;;;;;;4.40;2.83;;;23.30;87.40;;;;;;5095629;28;20099;-71
2023/08/12 00:49:12;;;;;;;4.93;3.08;;;23.30;87.40;;;;;;5095375;28;20036;-71
2023/08/12 00:51:42;;;;;;;7.50;3.40;;;23.30;87.40;;;;;;5095323;28;20359;-71
2023/08/12 00:54:10;;;;;;;6.00;3.03;;;23.20;87.30;;;;;;5095519;28;20058;-71
2023/08/12 00:56:37;;;;;;;8.20;2.80;;;23.20;87.30;;;;;;5094200;28;20066;-71
2023/08/12 00:59:05;;;;;;;6.80;2.85;;;23.20;87.00;;;;;;5092564;28;20027;-71
2023/08/12 01:01:31;;;;;;;5.60;2.83;;;23.20;86.90;;;;;;5093325;28;20027;-70
2023/08/12 01:03:57;;;;;;;5.80;3.10;;;23.20;86.80;;;;;;5093394;28;20016;-71
2023/08/12 01:06:24;;;;;;;5.32;2.97;;;23.10;86.80;;;;;;5095527;28;20492;-70
2023/08/12 01:08:50;;;;;;;7.95;3.25;;;23.10;86.80;;;;;;5095363;28;20039;-71
2023/08/12 01:12:37;;;;;;;6.40;2.83;;;23.10;87.10;;;;;;5095492;28;20024;-70
2023/08/12 01:30:10;;;;;;;5.85;3.00;;;22.90;87.30;;;;;;4840726;29;20050;-71
2023/08/12 01:36:20;;;;;;;5.65;3.30;;;22.80;87.40;;;;;;4831743;29;20056;-71
2023/08/12 01:38:47;;;;;;;6.88;3.10;;;22.80;87.40;;;;;;4866019;28;20400;-71
2023/08/12 01:41:15;;;;;;;4.82;3.40;;;22.80;87.60;;;;;;4972505;28;20130;-70
2023/08/12 01:43:42;;;;;;;4.75;3.03;;;22.80;87.60;;;;;;5025299;28;20034;-71
2023/08/12 01:46:08;;;;;;;4.43;3.03;;;22.70;87.80;;;;;;5011573;28;20061;-70
2023/08/12 01:48:33;;;;;;;4.25;3.47;;;22.70;87.60;;;;;;5011225;28;20061;-71
2023/08/12 01:50:59;;;;;;;4.50;3.50;;;22.70;87.60;;;;;;5010925;28;20029;-71
2023/08/12 01:53:25;;;;;;;4.75;3.10;;;22.60;87.70;;;;;;5011570;28;20410;-71
2023/08/12 01:55:52;;;;;;;8.27;2.90;;;22.60;87.90;;;;;;5010565;28;20030;-72
2023/08/12 01:58:18;;;;;;;5.90;3.22;;;22.60;88.00;;;;;;5011245;28;20102;-71
2023/08/12 02:00:44;;;;;;;4.07;3.10;;;22.60;88.00;;;;;;5011049;28;20460;-70
2023/08/12 02:03:09;;;;;;;3.92;3.10;;;22.60;88.20;;;;;;5010849;28;20036;-71
2023/08/12 02:05:37;;;;;;;5.22;3.22;;;22.50;88.20;;;;;;5011030;28;20033;-70
2023/08/12 02:08:04;;;;;;;5.72;3.15;;;22.50;88.40;;;;;;5010968;28;20391;-71
2023/08/12 02:10:29;;;;;;;7.85;4.00;;;22.50;88.60;;;;;;5010939;28;20018;-71
2023/08/12 02:12:55;;;;;;;4.00;2.80;;;22.50;88.70;;;;;;5010803;28;20030;-71
2023/08/12 02:15:21;;;;;;;4.00;2.88;;;22.40;88.80;;;;;;5011082;28;20074;-70
2023/08/12 02:17:47;;;;;;;7.28;3.50;;;22.40;88.80;;;;;;5078634;28;20133;-71
2023/08/12 02:20:13;;;;;;;8.82;3.47;;;22.40;88.60;;;;;;5010920;28;20030;-70
2023/08/12 02:22:38;;;;;;;3.10;2.80;;;22.40;88.80;;;;;;5010861;28;20022;-71
2023/08/12 02:25:04;;;;;;;4.72;3.22;;;22.40;88.80;;;;;;5011021;28;20399;-71
2023/08/12 02:27:30;;;;;;;5.55;3.03;;;22.40;89.10;;;;;;5010786;28;20022;-70
2023/08/12 02:29:56;;;;;;;8.82;3.33;;;22.40;89.10;;;;;;5010449;28;20036;-71
2023/08/12 02:32:21;;;;;;;3.65;3.10;;;22.40;89.20;;;;;;5010829;28;20159;-71
2023/08/12 02:34:48;;;;;;;6.80;3.75;;;22.30;89.30;;;;;;5010784;28;20040;-71
2023/08/12 02:37:13;;;;;;;5.50;3.72;;;22.30;89.30;;;;;;5011365;28;20033;-70
2023/08/12 02:39:40;;;;;;;5.28;3.28;;;22.30;89.40;;;;;;5011039;28;20483;-70
2023/08/12 02:42:22;;;;;;;3.80;3.15;;;22.30;89.40;;;;;;5011068;28;20021;-70
2023/08/12 03:02:10;;;;;;;6.80;3.08;;;22.20;90.00;;;;;;5011039;28;20059;-71
2023/08/12 03:07:51;;;;;;;6.63;3.40;;;22.20;90.00;;;;;;5049365;28;20198;-71
2023/08/12 03:10:18;;;;;;;7.00;3.60;;;22.10;90.00;;;;;;5010235;28;20022;-71
2023/08/12 03:12:44;;;;;;;8.38;3.58;;;22.10;90.00;;;;;;5078136;28;20388;-69
2023/08/12 03:15:11;;;;;;;8.48;3.47;;;22.10;90.10;;;;;;5077894;28;20383;-70
2023/08/12 03:17:39;;;;;;;7.90;3.30;;;22.10;90.00;;;;;;5010236;28;20018;-70
2023/08/12 03:20:08;;;;;;;9.30;4.00;;;22.10;90.00;;;;;;5009605;28;20445;-70
2023/08/12 03:22:35;;;;;;;5.20;3.08;;;22.10;89.90;;;;;;5009779;28;20424;-69
2023/08/12 03:25:01;;;;;;;7.65;3.97;;;22.00;89.70;;;;;;5009679;28;20115;-71
2023/08/12 03:27:27;;;;;;;4.40;3.25;;;22.00;89.90;;;;;;5009874;28;20051;-70
2023/08/12 03:29:53;;;;;;;6.18;3.15;;;22.00;90.00;;;;;;5009826;28;20037;-70
2023/08/12 03:32:18;;;;;;;7.82;3.47;;;22.00;90.00;;;;;;5009742;28;20018;-70
2023/08/12 03:34:44;;;;;;;3.50;3.13;;;21.90;90.00;;;;;;5009562;28;20037;-70
2023/08/12 03:37:10;;;;;;;11.95;3.20;;;21.90;90.00;;;;;;5080723;28;20052;-70
2023/08/12 03:39:35;;;;;;;6.65;3.20;;;21.90;90.00;;;;;;5092686;28;20055;-71
2023/08/12 03:42:01;;;;;;;7.00;3.20;;;21.90;90.00;;;;;;5092873;28;20035;-70
2023/08/12 03:44:27;;;;;;;4.50;2.83;;;21.90;90.00;;;;;;5092626;28;20099;-70
2023/08/12 03:46:53;;;;;;;3.47;2.95;;;21.90;90.00;;;;;;5092599;28;20039;-71
2023/08/12 03:49:18;;;;;;;3.80;3.05;;;21.90;90.00;;;;;;5092583;28;20078;-73
2023/08/12 03:51:44;;;;;;;3.80;3.08;;;21.80;89.90;;;;;;5092235;28;20028;-73
2023/08/12 03:54:11;;;;;;;4.95;3.17;;;21.80;90.00;;;;;;5092437;28;20027;-70
2023/08/12 03:56:37;;;;;;;5.05;3.20;;;21.80;90.00;;;;;;5092480;28;20070;-72
2023/08/12 03:59:02;;;;;;;8.10;3.42;;;21.80;90.00;;;;;;5092429;28;20024;-72
2023/08/12 04:01:28;;;;;;;5.80;2.80;;;21.80;90.00;;;;;;5092208;28;20018;-70
2023/08/12 04:03:54;;;;;;;3.42;2.70;;;21.70;89.90;;;;;;5092699;28;20737;-70
2023/08/12 04:06:20;;;;;;;4.93;2.63;;;21.70;89.80;;;;;;5091612;28;20073;-69
2023/08/12 04:08:45;;;;;;;8.95;2.83;;;21.70;89.60;;;;;;5092877;28;20039;-69
2023/08/12 04:11:12;;;;;;;3.50;2.65;;;21.60;89.70;;;;;;5093139;28;20469;-70
2023/08/12 04:13:38;;;;;;;7.72;3.00;;;21.70;89.70;;;;;;5092918;28;20025;-70
2023/08/12 04:26:32;;;;;;;5.20;2.90;;;21.50;89.80;;;;;;5074424;28;20040;-69
2023/08/12 04:29:39;;;;;;;6.80;3.25;;;21.50;89.90;;;;;;5094669;28;20495;-70
2023/08/12 04:32:57;;;;;;;3.42;2.70;;;21.50;89.80;;;;;;5093454;28;20367;-70
2023/08/12 04:38:49;;;;;;;7.05;3.25;;;21.40;89.90;;;;;;5084538;28;20046;-70
2023/08/12 04:41:15;;;;;;;13.43;3.22;;;21.40;90.00;;;;;;5095850;28;20050;-70
2023/08/12 04:43:42;;;;;;;4.25;3.08;;;21.40;90.00;;;;;;5095630;28;20457;-69
2023/08/12 04:46:08;;;;;;;4.90;2.70;;;21.40;90.00;;;;;;5095294;28;20390;-70
2023/08/12 04:48:34;;;;;;;4.07;3.20;;;21.30;90.00;;;;;;5095096;28;20039;-70
2023/08/12 04:51:01;;;;;;;5.50;2.85;;;21.40;90.20;;;;;;5095231;28;20024;-70
2023/08/12 04:53:27;;;;;;;5.47;3.33;;;21.40;90.20;;;;;;5093892;28;20397;-70
2023/08/12 04:55:55;;;;;;;7.45;3.00;;;21.30;90.20;;;;;;5095219;28;20024;-70
2023/08/12 04:58:20;;;;;;;5.70;3.10;;;21.40;90.30;;;;;;5095248;28;20123;-70
2023/08/12 05:00:47;;;;;;;7.15;3.22;;;21.30;90.30;;;;;;5094856;28;20109;-70
2023/08/12 05:03:12;;;;;;;5.82;3.40;;;21.30;90.40;;;;;;5094941;28;20035;-70
2023/08/12 05:05:38;;;;;;;4.88;3.05;;;21.40;90.40;;;;;;5095198;28;20032;-71
2023/08/12 05:08:04;;;;;;;5.63;3.17;;;21.30;90.50;;;;;;5094905;28;20032;-69
2023/08/12 05:10:30;;;;;;;7.40;3.28;;;21.40;90.60;;;;;;5095043;28;20024;-70
2023/08/12 05:12:57;;;;;;;5.97;3.58;;;21.30;90.60;;;;;;5093782;28;20103;-70
2023/08/12 05:15:23;;;;;;;7.75;3.03;;;21.40;90.60;;;;;;5094534;28;20020;-70
2023/08/12 05:17:49;;;;;;;11.35;3.30;;;21.40;90.70;;;;;;5094394;28;20076;-70
2023/08/12 05:20:15;;;;;;;3.45;2.95;;;21.50;90.60;;;;;;5094837;28;20063;-70
2023/08/12 05:22:41;;;;;;;4.72;3.13;;;21.50;90.60;;;;;;5094929;28;20024;-71
2023/08/12 05:25:07;;;;;;;5.43;3.00;;;21.50;90.60;;;;;;5094677;28;20029;-70
2023/08/12 05:27:32;;;;;;;7.93;2.92;;;21.50;90.60;;;;;;5094565;28;20497;-70
2023/08/12 05:29:58;;;;;;;6.72;3.08;;;21.50;90.60;;;;;;5094381;28;20063;-69
2023/08/12 05:32:24;;;;;;;6.63;3.38;;;21.60;90.70;;;;;;5093385;28;20024;-69
2023/08/12 05:34:52;;;;;;;4.97;2.75;;;21.60;90.70;;;;;;5094482;28;20416;-69
2023/08/12 05:37:18;;;;;;;3.90;2.80;;;21.60;90.70;;;;;;5094202;28;20047;-69
2023/08/12 05:39:43;;;;;;;3.60;3.10;;;21.60;90.80;;;;;;5095132;28;20094;-69
2023/08/12 05:42:09;;;;;;;6.18;3.00;;;21.70;90.80;;;;;;5095004;28;20069;-69
2023/08/12 05:44:35;;;;;;;4.93;3.00;;;21.70;90.90;;;;;;5094763;28;20059;-70
2023/08/12 05:47:03;;;;;;;5.60;2.90;;;21.80;91.10;;;;;;5094922;28;20035;-69
2023/08/12 05:50:42;;;;;;;3.08;2.47;;;21.80;91.00;;;;;;5094307;28;20024;-69
2023/08/12 05:53:38;;;;;;;;;;;;;;;;;;;;;
2023/08/12 06:06:34;;;;;;;11.93;3.30;;;22.10;90.50;;;;;;5011258;28;20029;-69
2023/08/12 06:12:43;;;;;;;3.58;2.80;;;22.20;90.70;;;;;;5011762;28;20044;-71
2023/08/12 06:15:12;;;;;;;5.22;2.95;;;22.20;90.70;;;;;;5008766;28;20036;-70
2023/08/12 06:17:38;;;;;;;6.22;2.92;;;22.30;90.80;;;;;;5083266;28;20432;-71
2023/08/12 06:20:04;;;;;;;6.18;3.13;;;22.30;90.80;;;;;;5093789;28;20016;-71
2023/08/12 06:22:30;;;;;;;4.03;2.83;;;22.40;90.80;;;;;;5093683;28;20024;-71
2023/08/12 06:24:55;;;;;;;3.72;2.85;;;22.40;90.80;;;;;;5093365;28;20066;-71
2023/08/12 06:27:21;;;;;;;3.85;2.80;;;22.50;90.70;;;;;;5093632;28;20072;-71
2023/08/12 06:29:47;;;;;;;3.65;2.60;;;22.50;90.70;;;;;;5093330;28;20055;-71
2023/08/12 06:32:14;;;;;;;4.25;2.83;;;22.60;90.70;;;;;;5093046;28;20020;-71
2023/08/12 06:34:40;;;;;;;6.88;2.67;;;22.60;90.60;;;;;;5092903;28;20107;-71
2023/08/12 06:37:06;;;;;;;5.85;2.90;;;22.70;90.50;;;;;;5093007;28;20546;-71
2023/08/12 06:39:32;;;;;;;6.68;2.88;;;22.70;90.20;;;;;;5093306;28;20028;-70
2023/08/12 06:41:58;;;;;;;3.85;2.60;;;22.70;90.10;;;;;;5092823;28;20020;-70
2023/08/12 06:44:24;;;;;;;5.70;2.83;;;22.80;90.00;;;;;;5093217;28;20024;-70
2023/08/12 06:46:50;;;;;;;8.15;2.75;;;22.80;89.90;;;;;;5093093;28;20024;-72
2023/08/12 06:49:16;;;;;;;3.28;2.60;;;22.90;89.40;;;;;;5093111;28;20067;-71
2023/08/12 06:51:42;;;;;;;3.67;2.40;;;23.00;89.20;;;;;;5093239;28;20016;-71
2023/08/12 06:54:08;;;;;;;3.63;2.40;;;23.00;89.00;;;;;;5092789;28;20028;-75
2023/08/12 06:56:33;;;;;;;5.97;2.60;;;23.10;88.80;;;;;;5074889;28;20111;-75
2023/08/12 06:58:59;;;;;;;6.97;2.25;;;23.10;88.40;;;;;;5093212;28;20056;-72
2023/08/12 07:01:25;;;;;;;23.08;4.25;;;23.10;88.00;;;;;;5092756;28;20016;-74
2023/08/12 07:03:51;;;;;;;4.68;2.50;;;23.20;87.70;;;;;;5092680;28;20099;-75
2023/08/12 07:06:16;;;;;;;6.78;2.70;;;23.20;87.60;;;;;;5092621;28;20024;-75
2023/08/12 07:08:42;;;;;;;2.78;2.42;;;23.30;87.50;;;;;;5092842;28;20535;-71
2023/08/12 07:11:08;;;;;;;3.72;2.20;;;23.30;87.30;;;;;;5093295;28;20035;-71
2023/08/12 07:13:34;;;;;;;5.75;2.60;;;23.30;87.10;;;;;;5093376;28;20465;-71
2023/08/12 07:16:00;;;;;;;2.83;2.40;;;23.40;86.90;;;;;;5093092;28;20362;-71
2023/08/12 07:18:26;;;;;;;5.10;2.40;;;23.40;86.60;;;;;;5092952;28;20032;-71
2023/08/12 07:27:10;;;;;;;3.88;2.60;;;23.50;85.90;;;;;;4971876;28;19913;-71
2023/08/12 07:30:26;;;;;;;5.82;2.63;;;23.60;86.30;;;;;;4971752;28;20054;-71
2023/08/12 07:39:50;;;;;;;4.93;2.30;;;23.70;85.60;;;;;;4933361;29;20042;-71
2023/08/12 07:42:46;;;;;;;4.90;2.28;;;23.70;85.40;;;;;;4990670;28;20423;-72
2023/08/12 07:45:13;;;;;;;4.80;2.70;;;23.70;85.20;;;;;;5010679;28;20377;-71
2023/08/12 07:47:39;;;;;;;6.25;2.45;;;23.80;85.30;;;;;;5010428;28;20022;-71
2023/08/12 07:50:05;;;;;;;3.78;2.70;;;23.90;85.50;;;;;;5049593;28;20398;-71
2023/08/12 07:52:31;;;;;;;6.20;2.80;;;23.90;85.40;;;;;;5092339;28;20028;-71
2023/08/12 07:54:57;;;;;;;5.30;2.67;;;23.90;85.00;;;;;;5094218;28;20054;-72
2023/08/12 07:57:24;;;;;;;6.63;2.58;;;23.90;84.80;;;;;;5096306;28;20028;-72
2023/08/12 07:59:52;;;;;;;4.90;2.42;;;24.00;84.80;;;;;;5096367;28;20442;-71
2023/08/12 08:02:18;;;;;;;3.50;2.50;;;24.00;85.20;;;;;;5096520;28;20016;-72
2023/08/12 08:04:44;;;;;;;2.97;2.60;;;24.10;85.40;;;;;;5096078;28;20031;-71
2023/08/12 08:07:10;;;;;;;11.45;3.65;;;24.10;85.20;;;;;;5096269;28;20023;-74
2023/08/12 08:09:36;;;;;;;7.55;2.90;;;24.10;84.80;;;;;;5096178;28;20514;-71
2023/08/12 08:12:03;;;;;;;4.95;2.45;;;24.20;84.90;;;;;;5095902;28;20020;-71
2023/08/12 08:14:28;;;;;;;2.97;2.30;;;24.20;85.20;;;;;;5095883;28;20108;-71
2023/08/12 08:16:54;;;;;;;4.60;2.38;;;24.30;85.40;;;;;;5096128;28;20175;-71
2023/08/12 08:19:20;;;;;;;10.48;2.50;;;24.30;85.40;;;;;;5095899;28;20587;-71
2023/08/12 08:21:45;;;;;;;3.80;2.60;;;24.30;84.30;;;;;;5096079;28;20024;-71
2023/08/12 08:24:12;;;;;;;3.65;2.50;;;24.40;84.80;;;;;;5095888;28;20036;-71
2023/08/12 08:26:41;;;;;;;9.63;2.70;;;24.50;83.80;;;;;;5095612;28;20024;-70
2023/08/12 08:29:07;;;;;;;3.58;2.50;;;24.50;83.80;;;;;;5095291;28;20040;-71
2023/08/12 08:31:32;;;;;;;5.97;2.55;;;24.50;83.70;;;;;;5095855;28;20062;-71
2023/08/12 08:33:58;;;;;;;5.30;2.38;;;24.60;83.20;;;;;;5095506;28;20031;-71
2023/08/12 08:36:24;;;;;;;2.47;2.25;;;24.60;82.60;;;;;;5095214;28;20020;-71
2023/08/12 08:38:50;;;;;;;7.53;2.88;;;24.60;82.00;;;;;;5095105;28;20058;-71
2023/08/12 08:41:16;;;;;;;2.53;2.28;;;24.70;82.00;;;;;;5095071;28;20036;-71
2023/08/12 08:43:45;;;;;;;3.83;2.30;;;24.70;82.00;;;;;;5095491;28;20422;-71
2023/08/12 08:46:15;;;;;;;4.85;2.45;;;24.80;82.10;;;;;;5095993;28;20031;-75
2023/08/12 08:48:43;;;;;;;6.25;2.88;;;24.80;82.60;;;;;;5095668;28;20405;-71
2023/08/12 08:51:10;;;;;;;10.50;2.50;;;24.80;82.20;;;;;;5095773;28;20099;-75
2023/08/12 08:54:09;;;;;;;3.83;2.20;;;24.90;81.00;;;;;;5095596;28;20078;-72
2023/08/12 08:56:38;;;;;;;6.63;2.30;;;24.90;80.80;;;;;;5069129;28;20463;-70
2023/08/12 08:59:16;;;;;;;5.93;2.58;;;24.90;80.90;;;;;;5095488;28;20446;-70
2023/08/12 09:02:00;;;;;;;3.60;2.45;;;25.00;80.50;;;;;;5095314;28;20027;-71
2023/08/12 09:05:07;;;;;;;5.22;2.50;;;25.10;80.70;;;;;;5094757;28;20048;-71
2023/08/12 09:08:10;;;;;;;3.67;2.40;;;25.10;80.90;;;;;;5032556;28;20046;-71
2023/08/12 09:10:51;;;;;;;3.45;2.20;;;25.10;80.80;;;;;;5015243;28;20037;-71
2023/08/12 09:14:05;;;;;;;2.88;2.58;;;25.20;80.50;;;;;;5032420;28;20041;-71
2023/08/12 09:16:43;;;;;;;3.70;2.35;;;25.30;80.60;;;;;;4975355;28;20452;-70
2023/08/12 09:19:09;;;;;;;5.82;2.50;;;25.30;80.80;;;;;;5077348;28;20394;-70
2023/08/12 09:21:35;;;;;;;4.40;2.08;;;25.40;79.60;;;;;;5095119;28;20446;-70
2023/08/12 09:24:05;;;;;;;2.88;2.13;;;25.40;79.20;;;;;;5094879;28;20385;-71
2023/08/12 09:26:31;;;;;;;2.20;2.00;;;25.50;79.10;;;;;;5095044;28;20389;-71
2023/08/12 09:28:59;;;;;;;4.57;2.38;;;25.50;78.90;;;;;;5094753;28;20036;-71
2023/08/12 09:31:29;;;;;;;3.90;2.40;;;25.60;78.40;;;;;;5076197;28;20385;-73
2023/08/12 09:34:13;;;;;;;3.38;2.30;;;25.60;78.20;;;;;;5094562;28;20355;-71
2023/08/12 09:36:38;;;;;;;3.00;2.40;;;25.70;77.80;;;;;;5094477;28;20197;-71
2023/08/12 09:39:10;;;;;;;6.28;2.47;;;25.70;78.20;;;;;;5045503;28;20482;-71
2023/08/12 09:41:40;;;;;;;4.53;2.13;;;25.80;77.80;;;;;;5011791;28;20022;-71
2023/08/12 09:44:06;;;;;;;3.72;2.22;;;25.80;77.60;;;;;;5011258;28;20514;-72
2023/08/12 09:46:35;;;;;;;3.90;2.40;;;25.80;78.50;;;;;;5011254;28;20026;-71
2023/08/12 09:49:01;;;;;;;5.05;2.53;;;25.90;78.30;;;;;;5011049;28;20030;-71
2023/08/12 09:51:27;;;;;;;3.88;2.38;;;25.90;78.10;;;;;;5011374;28;20045;-73
2023/08/12 09:53:53;;;;;;;3.55;2.30;;;26.00;77.90;;;;;;5011517;28;20029;-70
2023/08/12 09:56:22;;;;;;;7.45;2.30;;;26.00;78.70;;;;;;5011012;28;20019;-71
2023/08/12 09:58:49;;;;;;;4.18;2.35;;;26.10;78.20;;;;;;5010898;28;20061;-71
2023/08/12 10:01:20;;;;;;;5.20;2.38;;;26.10;78.50;;;;;;5011283;28;20061;-71
2023/08/12 10:03:50;;;;;;;3.45;2.67;;;26.10;78.40;;;;;;5011244;28;20029;-71
2023/08/12 10:06:17;;;;;;;4.13;1.98;;;26.20;77.80;;;;;;5011014;28;20056;-71
2023/08/12 10:08:45;;;;;;;4.03;2.13;;;26.20;77.10;;;;;;5010598;28;20502;-71
2023/08/12 10:11:12;;;;;;;2.85;2.50;;;26.30;77.90;;;;;;5010679;28;20215;-71
2023/08/12 10:13:38;;;;;;;3.63;2.65;;;26.30;77.20;;;;;;5011157;28;20021;-72
2023/08/12 10:16:04;;;;;;;2.95;2.50;;;26.40;77.10;;;;;;5011476;28;20056;-71
2023/08/12 10:18:32;;;;;;;4.10;2.67;;;26.40;77.20;;;;;;5011045;28;20022;-71
2023/08/12 10:21:05;;;;;;;4.13;2.20;;;26.50;76.10;;;;;;5011541;28;20398;-71
2023/08/12 10:24:13;;;;;;;2.33;2.05;;;26.50;75.80;;;;;;5011092;28;20018;-71
2023/08/12 10:30:13;;;;;;;2.90;1.80;;;26.60;74.30;;;;;;5047528;28;20041;-71
2023/08/12 10:32:57;;;;;;;4.43;2.08;;;26.70;73.90;;;;;;4993547;28;20037;-72
2023/08/12 10:36:21;;;;;;;;;;;;;;;;;;;;;
2023/08/12 10:38:51;;;;;;;3.90;1.88;;;26.80;74.00;;;;;;5046310;28;20544;-71
2023/08/12 10:41:51;;;;;;;6.85;1.80;;;26.80;73.10;;;;;;5050335;28;20049;-70
2023/08/12 10:48:19;;;;;;;3.00;2.00;;;26.80;71.70;;;;;;5027547;28;20132;-73
2023/08/12 10:50:51;;;;;;;3.45;1.83;;;26.90;73.60;;;;;;5010897;28;20038;-73
2023/08/12 10:53:22;;;;;;;4.38;2.47;;;27.00;74.00;;;;;;5010249;28;20368;-72
2023/08/12 10:55:54;;;;;;;3.35;2.10;;;27.00;74.40;;;;;;5010179;28;20036;-72
2023/08/12 10:58:34;;;;;;;4.60;2.25;;;27.00;73.20;;;;;;5010281;28;20029;-72
2023/08/12 11:01:00;;;;;;;2.58;2.08;;;27.00;72.80;;;;;;5009958;28;20032;-73
2023/08/12 11:03:31;;;;;;;2.63;2.25;;;27.00;73.70;;;;;;5010218;28;20022;-73
2023/08/12 11:05:59;;;;;;;5.25;2.15;;;27.10;73.40;;;;;;5010126;28;20117;-73
2023/08/12 11:08:29;;;;;;;2.72;2.40;;;27.10;73.90;;;;;;5010278;28;20391;-72
2023/08/12 11:10:58;;;;;;;2.97;2.10;;;27.20;73.90;;;;;;5010187;28;20494;-72
2023/08/12 11:13:27;;;;;;;4.43;2.13;;;27.20;73.90;;;;;;5009916;28;20025;-70
2023/08/12 11:16:07;;;;;;;3.53;2.08;;;27.30;74.00;;;;;;5044520;28;20389;-70
2023/08/12 11:18:33;;;;;;;3.38;2.17;;;27.30;73.40;;;;;;5093126;28;20177;-72
2023/08/12 11:21:00;;;;;;;3.65;1.88;;;27.40;74.00;;;;;;5092753;28;20055;-72
2023/08/12 11:23:25;;;;;;;2.45;2.10;;;27.40;73.60;;;;;;5092929;28;20103;-72
2023/08/12 11:25:52;;;;;;;2.30;1.88;;;27.40;74.20;;;;;;5092564;28;20063;-71
2023/08/12 11:28:21;;;;;;;3.05;2.35;;;27.50;73.00;;;;;;5092544;28;20441;-71
2023/08/12 11:30:47;;;;;;;3.70;2.08;;;27.50;73.10;;;;;;5094647;28;20027;-72
2023/08/12 11:33:18;;;;;;;4.07;2.05;;;27.50;74.10;;;;;;5096572;28;20016;-72
2023/08/12 11:35:44;;;;;;;5.05;2.53;;;27.60;75.00;;;;;;5096997;28;20027;-72
2023/08/12 11:38:09;;;;;;;3.85;2.05;;;27.60;74.30;;;;;;5096529;28;20044;-71
2023/08/12 11:40:35;;;;;;;3.92;2.08;;;27.60;74.00;;;;;;5096620;28;20028;-70
2023/08/12 11:43:03;;;;;;;3.38;2.00;;;27.70;73.80;;;;;;5096611;28;20168;-71
2023/08/12 11:45:28;;;;;;;6.32;2.10;;;27.80;73.70;;;;;;5096842;28;20028;-71
2023/08/12 11:47:54;;;;;;;4.38;2.10;;;27.80;73.40;;;;;;5096758;28;20027;-70
2023/08/12 11:50:25;;;;;;;3.97;2.13;;;27.80;73.40;;;;;;5096728;28;20114;-71
2023/08/12 11:52:55;;;;;;;4.20;2.08;;;27.80;73.10;;;;;;5097084;28;20095;-71
2023/08/12 12:05:46;;;;;;;3.58;2.08;;;28.00;72.80;;;;;;5097067;28;20078;-71
2023/08/12 12:08:55;;;;;;;2.85;1.95;;;28.00;72.40;;;;;;5094502;28;20044;-71
2023/08/12 12:18:44;;;;;;;5.32;2.15;;;28.00;70.80;;;;;;4991698;28;20038;-71
2023/08/12 12:21:10;;;;;;;3.30;2.00;;;28.10;71.60;;;;;;4994606;28;20034;-70
2023/08/12 12:23:37;;;;;;;2.53;2.00;;;28.10;72.00;;;;;;5027478;28;20518;-71
2023/08/12 12:26:04;;;;;;;3.30;2.17;;;28.10;70.80;;;;;;5074064;28;20028;-71
2023/08/12 12:28:30;;;;;;;3.25;2.20;;;28.20;71.40;;;;;;5095772;28;20445;-71
2023/08/12 12:30:56;;;;;;;2.65;2.00;;;28.20;71.30;;;;;;5095990;28;20416;-71
2023/08/12 12:33:22;;;;;;;5.30;3.08;;;28.20;71.70;;;;;;5095858;28;20039;-71
2023/08/12 12:35:48;;;;;;;3.67;2.20;;;28.30;72.10;;;;;;5095930;28;20161;-72
2023/08/12 12:38:14;;;;;;;2.80;2.00;;;28.20;72.10;;;;;;5095538;28;20101;-72
2023/08/12 12:40:39;;;;;;;2.38;2.10;;;28.30;71.60;;;;;;5095158;28;20024;-70
2023/08/12 12:43:05;;;;;;;4.72;2.03;;;28.30;71.30;;;;;;5095609;28;20095;-70
2023/08/12 12:45:31;;;;;;;3.88;2.13;;;28.30;70.30;;;;;;5095438;28;20035;-71
2023/08/12 12:47:57;;;;;;;2.58;2.03;;;28.30;70.40;;;;;;5095702;28;20024;-70
2023/08/12 12:50:22;;;;;;;2.65;2.08;;;28.30;70.40;;;;;;5095667;28;20059;-71
2023/08/12 12:52:48;;;;;;;3.03;2.00;;;28.30;71.30;;;;;;5095390;28;20028;-72
2023/08/12 12:55:14;;;;;;;4.25;1.83;;;28.40;69.20;;;;;;5095210;28;20028;-72
2023/08/12 12:57:40;;;;;;;2.75;1.90;;;28.40;70.20;;;;;;5095267;28;20024;-72
2023/08/12 13:00:10;;;;;;;3.53;2.10;;;28.40;71.00;;;;;;5095562;28;20051;-73
2023/08/12 13:02:36;;;;;;;2.78;1.90;;;28.40;71.40;;;;;;5095333;28;20161;-75
2023/08/12 13:05:01;;;;;;;5.15;2.10;;;28.50;71.10;;;;;;5094939;28;20107;-74
2023/08/12 13:07:27;;;;;;;3.25;2.20;;;28.50;71.20;;;;;;5095092;28;20078;-75
2023/08/12 13:09:53;;;;;;;2.90;2.05;;;28.50;71.20;;;;;;5095081;28;20035;-73
2023/08/12 13:12:19;;;;;;;4.80;2.05;;;28.60;70.50;;;;;;5095025;28;20028;-74
2023/08/12 13:14:44;;;;;;;6.55;1.98;;;28.60;69.90;;;;;;5095072;28;20023;-71
2023/08/12 13:17:10;;;;;;;3.10;2.20;;;28.60;69.20;;;;;;5095773;28;20523;-71
2023/08/12 13:19:36;;;;;;;3.50;2.30;;;28.70;69.40;;;;;;5095776;28;20044;-70
2023/08/12 13:22:02;;;;;;;2.95;2.15;;;28.60;70.90;;;;;;5095548;28;20044;-70
2023/08/12 13:24:28;;;;;;;2.40;2.08;;;28.70;70.70;;;;;;5095555;28;20452;-71
2023/08/12 13:30:59;;;;;;;3.60;2.10;;;28.70;68.90;;;;;;5012388;28;20516;-70
2023/08/12 13:49:42;;;;;;;6.82;2.10;;;28.80;70.00;;;;;;4935550;28;20072;-70
2023/08/12 13:52:08;;;;;;;3.05;2.28;;;28.90;70.30;;;;;;4991974;28;20045;-70
2023/08/12 13:54:34;;;;;;;5.20;2.20;;;28.90;69.60;;;;;;5017154;28;20029;-71
2023/08/12 13:57:00;;;;;;;2.40;1.95;;;28.90;69.50;;;;;;5068502;28;20375;-71
2023/08/12 13:59:26;;;;;;;4.35;2.22;;;28.90;70.60;;;;;;5093992;28;20039;-71
2023/08/12 14:01:51;;;;;;;2.72;2.10;;;29.00;70.20;;;;;;5093557;28;20065;-71
2023/08/12 14:04:17;;;;;;;2.45;1.90;;;29.00;69.40;;;;;;5093800;28;20059;-70
2023/08/12 14:06:43;;;;;;;4.28;1.92;;;29.00;69.60;;;;;;5093893;28;20016;-71
2023/08/12 14:09:10;;;;;;;2.88;2.13;;;28.90;70.70;;;;;;5093931;28;20111;-70
2023/08/12 14:11:36;;;;;;;6.05;2.10;;;29.00;71.30;;;;;;5093701;28;20020;-70
2023/08/12 14:14:03;;;;;;;3.95;1.95;;;29.00;70.60;;;;;;5093764;28;20470;-70
2023/08/12 14:16:29;;;;;;;4.40;2.47;;;29.00;70.30;;;;;;5093841;28;20433;-70
2023/08/12 14:18:55;;;;;;;4.40;1.70;;;29.00;69.90;;;;;;5093505;28;20055;-69
2023/08/12 14:21:21;;;;;;;3.13;2.10;;;29.00;70.40;;;;;;5093499;28;20024;-71
2023/08/12 14:23:47;;;;;;;3.22;1.90;;;29.00;70.80;;;;;;5093551;28;20102;-70
2023/08/12 14:26:12;;;;;;;4.82;2.22;;;29.10;70.80;;;;;;5093646;28;20024;-69
2023/08/12 14:28:38;;;;;;;2.95;2.35;;;29.00;70.40;;;;;;5093578;28;20028;-71
2023/08/12 14:31:04;;;;;;;3.42;2.22;;;29.10;70.20;;;;;;5093575;28;20027;-71
2023/08/12 14:33:30;;;;;;;2.60;2.00;;;29.10;70.40;;;;;;5090594;28;20032;-70
2023/08/12 14:35:58;;;;;;;2.58;2.15;;;29.00;70.50;;;;;;5083364;22;20060;-75
2023/08/12 14:38:24;;;;;;;11.68;2.40;;;29.10;71.60;;;;;;5051033;28;20059;-73
2023/08/12 14:40:50;;;;;;;4.72;1.90;;;29.00;70.90;;;;;;5053055;28;20052;-74
2023/08/12 14:43:16;;;;;;;6.30;2.03;;;29.00;71.10;;;;;;5053186;28;20029;-73
2023/08/12 14:45:45;;;;;;;5.63;2.17;;;29.00;70.70;;;;;;5053158;28;20032;-73
2023/08/12 14:48:14;;;;;;;9.35;2.53;;;29.00;70.90;;;;;;5052514;28;20506;-73
2023/08/12 14:50:41;;;;;;;6.60;2.50;;;29.10;71.00;;;;;;5053005;28;20389;-72
2023/08/12 14:53:07;;;;;;;4.85;2.40;;;29.10;71.40;;;;;;5052676;28;20027;-72
2023/08/12 14:55:33;;;;;;;3.33;2.13;;;29.10;71.10;;;;;;5052659;28;20021;-72
2023/08/12 14:57:59;;;;;;;3.78;2.40;;;29.10;71.30;;;;;;5052844;28;20021;-74
2023/08/12 15:00:25;;;;;;;2.38;1.90;;;29.10;71.20;;;;;;5052982;28;20029;-71
2023/08/12 15:02:50;;;;;;;4.05;2.00;;;29.10;70.60;;;;;;5052524;28;20025;-71
2023/08/12 15:05:17;;;;;;;4.18;2.10;;;29.10;70.40;;;;;;5052942;28;20021;-71